Sign in:
Email
 Password  save:
  
 Company Reports 
 
   
My Recent Searches
  Help
 
   
 
 
Get Institutions for : 
Liberty Media Corporation (LMCA)    
$44.38 0.00 (0.00%) as of 4:30 Mon 10/20


Download
     
Institutional Holders
Viewing Quarter :
  
Total Institutions: 385    5
Total shares held : 
83,925,454  
% of shares held : 
69.64%  
Changes In:
New/increased positions vs   
old/decreased positions : 
  6  
Amount of shares held : 
-2,259,876  
% of shares held change : 
  -1.88%  
Quarter Price vs. Current Price:
Last Quarter's Starting Price
$131.75  
Last Quarter's Ending Price : 
$136.68  
Last Quarter's Average Price
$129.11  
Change from last quarter's     
avg. price to the last closing  : 
84.73 (65.63%)  




 
All Securities Held :
Positions
     Shares
% Of
Total Shares
New Positions :
43
 2,715,627
 3.24%
 
Increased Positions :
139
 9,895,650
 11.79%
 
Unchanged Positions :
75
 3,003,344
 3.58%
 
Decreased Positions :
128
-8,954,809
-10.67%
 
Closed Positions :
48
-5,916,344
-7.05%
 
Guru Positions :
2
5,454,939
 6.5%
 
View holdings for period: 
9-30-2012 View holdings for period: 
12-31-2012 View holdings for period: 
3-31-2013 View holdings for period: 
6-30-2013 View holdings for period: 
9-30-2013 View holdings for period: 
12-31-2013 View holdings for period: 
3-31-2014 View holdings for the current period

  Page 1 of 1  
Free Registration Required For Full Results


            Institution Name
Portfolio
Position
New/Closed
Position

Filing Date

Total Shares

Total Value

Change in Shares

File
   FMR LLC 162 - 2014-06-30 7,098,001 $970,155,000 1,961,629
   HORIZON KINETICS LLC 2 - 2014-06-30 4,531,261 $619,333,000 -124,778
   CLEARBRIDGE ADVISORS LLC 34 - 2014-06-30 4,287,737 $586,048,000 272,088
   D E SHAW & CO INC 8 - 2014-06-30 4,279,963 $584,986,000 -407,571
   BERKSHIRE HATHAWAY INC -- Notable Guru -- 23 - 2014-06-30 4,000,000 $546,720,000 -1,300,000
   VANGUARD GROUP INC 549 - 2014-06-30 3,324,039 $454,329,000 64,459
   ROBECO INVESTMENT MANAGEMENT INC 48 - 2014-06-30 2,545,205 $347,878,000 235,673
   BLACKROCK INSTITUTIONAL TRUST COMPANY 354 - 2014-06-30 2,389,920 $326,654,000 35,832
   PRINCIPAL FINANCIAL GROUP INC 22 - 2014-06-30 2,312,953 $316,135,000 48,083
   BLACKROCK ADVISORS LLC 85 - 2014-06-30 2,164,269 $295,812,000 679,268
   SEIZERT CAPITAL PARTNERS LLC 1 - 2014-06-30 1,875,846 $256,391,000 292,058
   GOLDMAN SACHS GROUP INC/ 226 - 2014-06-30 1,813,965 $247,932,000 270,662
   TIGER GLOBAL MANAGEMENT LLC 14 - 2014-06-30 1,750,000 $239,190,000 845,000
   FPR PARTNERS LLC 6 - 2014-06-30 1,734,401 $237,058,000 150,000
   STATE STREET CORP 556 - 2014-06-30 1,710,147 $233,745,000 -289,966
   WEITZ WALLACE R & CO -- Notable Guru -- 1 - 2014-06-30 1,454,939 $198,861,000 359,913
   BLACKROCK GROUP LTD 242 - 2014-06-30 1,254,823 $171,509,000 255,172
   INVESCO LTD 379 - 2014-06-30 1,105,546 $151,106,000 -84,474
   MUNDER CAPITAL MANAGEMENT 12 - 2014-06-30 950,832 $129,960,000 -50,656
   FRANKLIN RESOURCES INC 351 - 2014-06-30 831,234 $113,609,000 -87,526
   EverPoint Asset Management LLC 1 - 2014-06-30 820,827 $112,191,000 0
   P SCHOENFELD ASSET MANAGEMENT LLC/NY 5 - 2014-06-30 764,793 $104,532,000 456,606
   GAMCO INVESTORS INC ET AL 52 - 2014-06-30 752,156 $102,805,000 20,132
   BLACKROCK FUND ADVISORS 876 - 2014-06-30 726,285 $99,269,000 25,530
   SENATOR INVESTMENT GROUP LP 44 - 2014-06-30 700,029 $95,680,000 -549,971
   BAMCO INC /NY/ 80 - 2014-06-30 694,344 $94,903,000 -39,108
   KENSICO CAPITAL MANAGEMENT CORP 14 - 2014-06-30 685,000 $93,626,000 -279,000
   MAGNETAR FINANCIAL LLC 12 - 2014-06-30 682,860 $93,333,000 559,701
   DEUTSCHE BANK AG 373 - 2014-06-30 648,694 $88,660,000 112,282
   WELLS FARGO & CO/MN 531 - 2014-06-30 642,441 $87,809,000 65,270
   NORTHERN TRUST CORP 527 - 2014-06-30 641,711 $87,710,000 36,875
   DIMENSIONAL FUND ADVISORS INC 377 - 2014-06-30 628,466 $85,883,000 -43,619
   Halcyon Management Partners LP 5 - 2014-06-30 619,884 $84,726,000 0
   CITADEL ADVISORS LLC 156 - 2014-06-30 616,331 $84,239,000 337,915
   ASCEND CAPITAL LLC 3 - 2014-06-30 612,542 $83,722,000 337,542
   FIRST MANHATTAN CO 45 - 2014-06-30 576,748 $78,829,000 -2,339
   GABELLI FUNDS LLC 64 - 2014-06-30 568,500 $77,703,000 3,500
   GRUSS ASSET MGMT LP 2 - 2014-06-30 561,727 $76,777,000 391,080
   GEODE CAPITAL MANAGEMENT LLC 383 - 2014-06-30 539,535 $73,728,000 6,275
   J P MORGAN CHASE & CO 693 - 2014-06-30 486,538 $66,499,000 14,295
   STATE OF NEW JERSEY COMMON PENSION FUND D 85 *New 2014-06-30 460,000 $62,873,000 460,000
   BANK OF NEW YORK MELLON CORP 827 - 2014-06-30 423,189 $57,841,000 17,086
   EMPYREAN CAPITAL PARTNERS LP 11 - 2014-06-30 420,000 $57,406,000 -80,000
   MARKSTON INTERNATIONAL LLC 2 - 2014-06-30 412,868 $56,431,000 -4,290
   STATE OF NEW JERSEY COMMON PENSION FUND A 99 - 2014-03-31 430,000 $56,214,000 -10,000
   Point72 Asset Management L.P. 68 - 2014-06-30 398,100 $54,412,000 0
   CLOUGH CAPITAL PARTNERS L P 8 - 2014-06-30 397,587 $54,342,000 -90,000
   Roystone Capital Management LP 24 *New 2014-06-30 394,600 $53,934,000 394,600
   LEGAL & GENERAL GROUP PLC 374 - 2014-06-30 361,869 $49,460,000 -1,368
   RENAISSANCE TECHNOLOGIES LLC 196 - 2014-06-30 360,656 $49,294,000 -65,102
   VISIUM ASSET MANAGEMENT LP 15 - 2014-06-30 357,550 $48,870,000 135,491
   KINGSTOWN CAPITAL MANAGEMENT L.P. 8 - 2014-06-30 350,000 $47,838,000 50,000
   DAVENPORT & CO LLC 35 *New 2014-06-30 349,195 $47,728,000 349,195
   UNITED STATES STEEL & CARNEGIE PENSION FD 48 - 2014-06-30 328,107 $44,846,000 0
   JANA PARTNERS LLC 34 - 2014-06-30 325,000 $44,421,000 -1,920,695
   CREDIT SUISSE/ 493 - 2014-06-30 302,306 $41,318,000 -16,710
   BHR CAPITAL, LLC 14 *New 2014-06-30 300,000 $41,004,000 300,000
   S&CO INC 1 - 2014-06-30 299,778 $40,974,000 -41,060
   PINNACLE ASSOCIATES LTD 33 *New 2014-06-30 298,448 $40,792,000 298,448
   CALIFORNIA PUBLIC EMPLOYEES RETIREMENT SYSTEM 375 - 2014-06-30 280,923 $38,397,000 -4,100
   ROBECO INSTITUTIONAL ASSET MANAGEMENT B.V. 92 - 2014-06-30 279,091 $38,146,000 34,802
   TIAA CREF INVESTMENT MANAGEMENT LLC 570 - 2014-06-30 274,583 $37,530,000 -88,198
   GUGGENHEIM CAPITAL LLC 346 - 2014-06-30 271,012 $37,042,000 16,173
   APG ALL PENSIONS GROUP 279 - 2014-06-30 268,683 $36,724,000 38,863
   LOOMIS SAYLES & CO L P 169 - 2014-06-30 264,746 $36,185,000 -8,327
   RS INVESTMENT MANAGEMENT CO LLC 122 *New 2014-06-30 261,274 $35,711,000 261,274
   LOCUST WOOD CAPITAL ADVISERS LLC 2 - 2014-06-30 256,669 $35,082,000 213,540
   MANAGED ACCOUNT ADVISORS LLC 461 - 2014-06-30 251,817 $34,419,000 34,831
   MARKEL CORP 32 - 2014-06-30 246,000 $33,623,000 71,000
   PUBLIC EMPLOYEES RETIREMENT SYSTEM OF OHIO 113 - 2014-03-31 254,178 $33,229,000 19,032
   BLACKROCK INVESTMENT MANAGEMENT LLC 378 - 2014-06-30 241,539 $33,014,000 94,125
   DORSAL CAPITAL MANAGEMENT, LLC 4 - 2014-06-30 240,000 $32,803,000 60,000
   MORGAN STANLEY 1061 - 2014-06-30 234,633 $32,071,000 -120,067
   UBS GLOBAL ASSET MANAGEMENT AMERICAS INC 528 - 2014-06-30 233,353 $31,895,000 -1,800
   KING LUTHER CAPITAL MANAGEMENT CORP 122 - 2014-06-30 222,547 $30,418,000 -68,751
   CANADA PENSION PLAN INVESTMENT BOARD 191 - 2014-06-30 220,300 $30,111,000 300
   JANUS CAPITAL MANAGEMENT LLC 507 - 2014-06-30 207,404 $28,348,000 -302,307
   BNP PARIBAS ARBITRAGE SA 141 - 2014-06-30 203,848 $27,862,000 -65,744
   TYRUS CAPITAL S.A.M. 15 *New 2014-06-30 190,000 $25,969,000 190,000
   THIRD AVENUE MANAGEMENT LLC 61 - 2014-06-30 187,085 $25,571,000 -20,404
   AQR CAPITAL MANAGEMENT LLC 324 - 2014-06-30 186,540 $25,496,000 70,883
   MITSUBISHI UFJ TRUST & BANKING CORP 394 - 2014-06-30 179,603 $24,548,000 -163,790
   FIRST TRUST ADVISORS LP 285 - 2014-06-30 179,426 $24,524,000 79,810
   CALIFORNIA STATE TEACHERS RETIREMENT SYSTEM 322 - 2014-06-30 173,244 $23,679,000 -900
   BLACKROCK INC. 465 - 2014-06-30 169,820 $23,210,000 94,121
   THOMPSON SIEGEL & WALMSLEY LLC 80 - 2014-06-30 163,633 $22,366,000 115,562
   ALLIANCEBERNSTEIN L.P. 663 - 2014-06-30 160,813 $21,980,000 -634,654
   ARROWPOINT ASSET MANAGEMENT, LLC 59 - 2014-06-30 156,854 $21,439,000 0
   ARNHOLD & S BLEICHROEDER ADVISERS LLC 152 - 2014-06-30 156,391 $21,376,000 0
   HSBC HOLDINGS PLC 365 - 2014-06-30 146,729 $20,039,000 -55,816
   STATE BOARD OF ADMINISTRATION OF FLORIDA RETIREMEN 319 - 2014-06-30 143,443 $19,606,000 -7,005
   MIZUHO TRUST & BANKING CO., LTD. 322 - 2014-06-30 145,165 $18,977,000 0
   WALLACE CAPITAL MANAGEMENT INC. 8 - 2014-06-30 136,999 $18,725,000 7,316
   UBS AG 777 - 2014-06-30 127,101 $17,372,000 14,502
   KIRR MARBACH & CO LLC /IN/ 12 - 2014-06-30 123,841 $16,927,000 864
   NATIONWIDE FUND ADVISORS 365 - 2014-06-30 122,270 $16,712,000 11,670
   VERTEX ONE ASSET MANAGEMENT INC. 21 - 2014-06-30 120,000 $16,402,000 94,523
   DOUGLASS WINTHROP ADVISORS LLC 29 - 2014-06-30 116,875 $15,974,000 113,600
   PDT PARTNERS, LLC 33 - 2014-06-30 114,315 $15,625,000 47,591
   Swift Run Capital Management LLC 4 - 2014-06-30 108,407 $14,817,000 6,286

  100 Records found
  1    
  Page 1 of 1
Free Registration Required For Full Results